createdAt,value
2023-04-16T00:01:01.463Z,44.20
2023-04-16T00:03:28.290Z,44.20
2023-04-16T00:05:55.048Z,44.20
2023-04-16T00:08:21.680Z,44.20
2023-04-16T00:10:48.316Z,44.10
2023-04-16T00:13:14.977Z,45.30
2023-04-16T00:15:41.621Z,44.20
2023-04-16T00:18:08.259Z,44.30
2023-04-16T00:20:34.874Z,44.20
2023-04-16T00:23:01.492Z,44.30
2023-04-16T00:25:28.141Z,44.30
2023-04-16T00:27:54.772Z,44.20
2023-04-16T00:30:21.391Z,44.20
2023-04-16T00:32:48.102Z,44.20
2023-04-16T00:35:14.782Z,44.20
2023-04-16T00:37:41.421Z,44.20
2023-04-16T00:40:08.064Z,44.20
2023-04-16T00:42:34.703Z,44.30
2023-04-16T00:45:01.317Z,44.20
2023-04-16T00:47:28.005Z,44.20
2023-04-16T00:49:54.950Z,44.30
2023-04-16T00:52:21.580Z,44.20
2023-04-16T00:54:48.193Z,44.30
2023-04-16T00:57:14.803Z,44.30
2023-04-16T00:59:41.432Z,44.30
2023-04-16T01:02:08.150Z,44.90
2023-04-16T01:04:34.917Z,44.30
2023-04-16T01:07:01.577Z,44.30
2023-04-16T01:09:28.209Z,44.30
2023-04-16T01:11:54.816Z,44.30
2023-04-16T01:14:21.661Z,44.30
2023-04-16T01:16:48.289Z,44.30
2023-04-16T01:19:14.902Z,44.30
2023-04-16T01:21:41.539Z,44.30
2023-04-16T01:24:08.169Z,44.30
2023-04-16T01:26:34.768Z,44.40
2023-04-16T01:29:01.374Z,44.30
2023-04-16T01:31:28.279Z,44.30
2023-04-16T01:33:54.943Z,44.30
2023-04-16T01:36:21.556Z,44.30
2023-04-16T01:38:48.163Z,44.30
2023-04-16T01:41:14.791Z,44.30
2023-04-16T01:43:41.516Z,44.30
2023-04-16T01:46:08.146Z,44.30
2023-04-16T01:48:35.055Z,44.30
2023-04-16T01:51:01.681Z,44.30
2023-04-16T01:53:28.515Z,44.30
2023-04-16T01:55:55.133Z,44.40
2023-04-16T01:58:21.748Z,44.40
2023-04-16T02:00:48.452Z,44.30
2023-04-16T02:03:15.251Z,44.30
2023-04-16T02:05:41.963Z,44.30
2023-04-16T02:08:08.626Z,45.40
2023-04-16T02:10:35.263Z,44.30
2023-04-16T02:13:01.930Z,44.30
2023-04-16T02:15:28.541Z,44.30
2023-04-16T02:17:55.176Z,44.40
2023-04-16T02:20:22.070Z,44.30
2023-04-16T02:22:48.714Z,44.40
2023-04-16T02:25:15.345Z,44.40
2023-04-16T02:27:41.982Z,44.40
2023-04-16T02:30:08.608Z,44.40
2023-04-16T02:32:35.515Z,44.40
2023-04-16T02:35:02.234Z,44.40
2023-04-16T02:37:28.905Z,44.40
2023-04-16T02:39:55.531Z,44.40
2023-04-16T02:42:22.415Z,44.40
2023-04-16T02:44:49.063Z,44.40
2023-04-16T02:47:15.680Z,44.40
2023-04-16T02:49:42.322Z,44.40
2023-04-16T02:52:08.958Z,44.50
2023-04-16T02:54:35.598Z,44.40
2023-04-16T02:57:02.210Z,44.40
2023-04-16T02:59:29.075Z,44.40
2023-04-16T03:01:55.821Z,44.40
2023-04-16T03:04:22.530Z,44.40
2023-04-16T03:06:49.260Z,44.40
2023-04-16T03:09:15.889Z,44.40
2023-04-16T03:11:42.538Z,44.40
2023-04-16T03:14:09.207Z,44.40
2023-04-16T03:16:36.050Z,45.50
2023-04-16T03:19:02.681Z,44.40
2023-04-16T03:21:29.323Z,44.40
2023-04-16T03:23:55.944Z,44.40
2023-04-16T03:26:22.569Z,44.30
2023-04-16T03:28:49.185Z,44.40
2023-04-16T03:31:15.878Z,44.40
2023-04-16T03:33:42.550Z,44.40
2023-04-16T03:36:09.182Z,44.40
2023-04-16T03:38:35.804Z,44.30
2023-04-16T03:41:02.674Z,44.40
2023-04-16T03:43:29.302Z,44.40
2023-04-16T03:45:56.148Z,44.40
2023-04-16T03:48:22.767Z,44.40
2023-04-16T03:50:49.410Z,44.30
2023-04-16T03:53:16.058Z,44.40
2023-04-16T03:55:42.701Z,44.40
2023-04-16T03:58:09.345Z,44.30
2023-04-16T04:00:35.994Z,44.50
2023-04-16T04:03:03.016Z,44.50
2023-04-16T04:05:29.867Z,44.50
2023-04-16T04:07:56.503Z,44.40
2023-04-16T04:10:23.144Z,44.40
2023-04-16T04:12:49.808Z,44.40
2023-04-16T04:15:16.480Z,44.40
2023-04-16T04:17:43.226Z,44.40
2023-04-16T04:20:10.186Z,44.40
2023-04-16T04:22:36.843Z,44.50
2023-04-16T04:25:03.534Z,44.50
2023-04-16T04:27:30.174Z,44.50
2023-04-16T04:29:56.796Z,44.40
2023-04-16T04:32:23.406Z,44.40
2023-04-16T04:34:50.309Z,44.40
2023-04-16T04:37:17.243Z,44.50
2023-04-16T04:39:43.904Z,44.50
2023-04-16T04:42:10.573Z,44.50
2023-04-16T04:44:37.230Z,44.30
2023-04-16T04:47:03.847Z,44.40
2023-04-16T04:49:30.475Z,44.40
2023-04-16T04:51:57.112Z,44.40
2023-04-16T04:54:23.951Z,44.50
2023-04-16T04:56:50.585Z,44.40
2023-04-16T04:59:17.474Z,44.50
2023-04-16T05:01:44.126Z,44.50
2023-04-16T05:04:10.797Z,44.50
2023-04-16T05:06:37.473Z,44.50
2023-04-16T05:09:04.115Z,44.50
2023-04-16T05:11:30.753Z,44.50
2023-04-16T05:13:57.382Z,44.50
2023-04-16T05:16:24.338Z,44.40
2023-04-16T05:18:50.990Z,44.40
2023-04-16T05:21:17.822Z,44.40
2023-04-16T05:23:44.435Z,44.50
2023-04-16T05:26:11.058Z,44.40
2023-04-16T05:28:37.680Z,44.40
2023-04-16T05:31:04.352Z,44.50
2023-04-16T05:33:31.229Z,44.50
2023-04-16T05:35:57.851Z,44.50
2023-04-16T05:38:24.488Z,44.40
2023-04-16T05:40:51.133Z,44.50
2023-04-16T05:43:17.774Z,44.50
2023-04-16T05:45:44.402Z,44.50
2023-04-16T05:48:11.048Z,44.50
2023-04-16T05:50:37.895Z,44.40
2023-04-16T05:53:04.558Z,44.50
2023-04-16T05:55:31.213Z,44.50
2023-04-16T05:57:57.861Z,44.50
2023-04-16T06:00:24.502Z,44.50
2023-04-16T06:02:51.226Z,44.60
2023-04-16T06:05:17.962Z,44.50
2023-04-16T06:07:44.615Z,44.50
2023-04-16T06:10:11.264Z,44.40
2023-04-16T06:12:37.894Z,44.50
2023-04-16T06:15:04.561Z,44.50
2023-04-16T06:17:31.213Z,44.50
2023-04-16T06:19:57.879Z,44.50
2023-04-16T06:22:26.391Z,44.50
2023-04-16T06:24:53.010Z,44.50
2023-04-16T06:27:19.660Z,44.50
2023-04-16T06:29:46.530Z,44.60
2023-04-16T06:32:13.161Z,44.50
2023-04-16T06:34:39.853Z,44.50
2023-04-16T06:37:08.354Z,44.50
2023-04-16T06:39:36.550Z,44.60
2023-04-16T06:42:03.180Z,44.50
2023-04-16T06:44:29.821Z,44.50
2023-04-16T06:46:56.685Z,44.50
2023-04-16T06:49:23.335Z,44.50
2023-04-16T06:51:49.986Z,44.60
2023-04-16T06:54:16.632Z,44.50
2023-04-16T06:56:43.266Z,44.50
2023-04-16T06:59:10.116Z,44.50
2023-04-16T07:01:36.892Z,44.50
2023-04-16T07:04:04.008Z,44.50
2023-04-16T07:06:30.752Z,44.60
2023-04-16T07:08:57.410Z,44.50
2023-04-16T07:11:24.060Z,44.50
2023-04-16T07:13:50.674Z,44.60
2023-04-16T07:16:17.320Z,44.60
2023-04-16T07:18:44.010Z,44.60
2023-04-16T07:21:10.867Z,44.50
2023-04-16T07:23:37.481Z,44.60
2023-04-16T07:26:04.090Z,45.60
2023-04-16T07:28:30.720Z,44.60
2023-04-16T07:30:57.345Z,44.50
2023-04-16T07:33:23.983Z,44.60
2023-04-16T07:35:50.601Z,44.50
2023-04-16T07:38:17.465Z,44.60
2023-04-16T07:40:44.117Z,44.60
2023-04-16T07:43:10.754Z,44.60
2023-04-16T07:45:37.444Z,44.60
2023-04-16T07:48:04.126Z,44.60
2023-04-16T07:50:30.817Z,44.50
2023-04-16T07:52:57.448Z,44.70
2023-04-16T07:55:24.288Z,44.50
2023-04-16T07:57:50.964Z,44.50
2023-04-16T08:00:17.597Z,44.60
2023-04-16T08:02:44.443Z,44.60
2023-04-16T08:05:11.328Z,44.60
2023-04-16T08:07:38.002Z,44.60
2023-04-16T08:10:04.628Z,44.50
2023-04-16T08:12:31.276Z,44.60
2023-04-16T08:14:57.918Z,44.50
2023-04-16T08:17:24.803Z,44.50
2023-04-16T08:19:51.462Z,44.60
2023-04-16T08:22:18.336Z,44.70
2023-04-16T08:24:45.001Z,44.70
2023-04-16T08:27:18.632Z,44.60
2023-04-16T08:29:46.678Z,44.60
2023-04-16T08:32:13.298Z,44.50
2023-04-16T08:34:39.928Z,44.50
2023-04-16T08:37:06.554Z,44.70
2023-04-16T08:39:33.401Z,44.60
2023-04-16T08:42:00.023Z,44.50
2023-04-16T08:44:26.658Z,44.60
2023-04-16T08:46:53.369Z,44.60
2023-04-16T08:49:20.018Z,44.60
2023-04-16T08:51:46.897Z,44.70
2023-04-16T08:54:13.534Z,44.60
2023-04-16T08:56:42.401Z,44.60
2023-04-16T08:59:09.816Z,44.50
2023-04-16T09:01:36.680Z,44.60
2023-04-16T09:04:03.549Z,44.60
2023-04-16T09:06:30.355Z,44.60
2023-04-16T09:08:57.209Z,45.60
2023-04-16T09:11:23.848Z,44.40
2023-04-16T09:13:50.459Z,44.50
2023-04-16T09:16:17.168Z,44.60
2023-04-16T09:18:43.809Z,44.60
2023-04-16T09:21:10.416Z,44.60
2023-04-16T09:23:37.042Z,44.60
2023-04-16T09:26:03.660Z,44.80
2023-04-16T09:28:30.307Z,44.60
2023-04-16T09:30:57.157Z,44.60
2023-04-16T09:33:23.800Z,44.50
2023-04-16T09:35:50.786Z,44.60
2023-04-16T09:38:17.554Z,44.60
2023-04-16T09:40:44.175Z,44.50
2023-04-16T09:43:10.828Z,44.60
2023-04-16T09:45:37.464Z,44.60
2023-04-16T09:48:04.307Z,44.60
2023-04-16T09:50:31.322Z,44.70
2023-04-16T09:52:57.963Z,44.60
2023-04-16T09:55:24.597Z,44.60
2023-04-16T09:57:51.438Z,44.60
2023-04-16T10:00:18.101Z,44.60
2023-04-16T10:02:45.047Z,44.60
2023-04-16T10:05:11.737Z,44.60
2023-04-16T10:07:38.357Z,44.60
2023-04-16T10:10:05.063Z,44.70
2023-04-16T10:12:31.934Z,44.60
2023-04-16T10:14:58.584Z,44.70
2023-04-16T10:17:25.493Z,44.60
2023-04-16T10:19:53.729Z,44.70
2023-04-16T10:22:20.384Z,44.60
2023-04-16T10:24:47.289Z,44.70
2023-04-16T10:27:13.922Z,44.70
2023-04-16T10:29:40.809Z,44.70
2023-04-16T10:32:07.464Z,44.70
2023-04-16T10:34:34.115Z,44.60
2023-04-16T10:37:00.767Z,44.60
2023-04-16T10:39:27.426Z,44.60
2023-04-16T10:41:54.047Z,44.60
2023-04-16T10:44:20.698Z,44.70
2023-04-16T10:46:47.556Z,44.60
2023-04-16T10:49:14.205Z,44.70
2023-04-16T10:51:40.829Z,44.70
2023-04-16T10:54:07.451Z,44.70
2023-04-16T10:56:34.068Z,44.60
2023-04-16T10:59:00.706Z,44.60
2023-04-16T11:01:27.352Z,44.60
2023-04-16T11:03:54.131Z,44.60
2023-04-16T11:06:20.902Z,44.70
2023-04-16T11:08:54.670Z,44.60
2023-04-16T11:11:21.971Z,44.60
2023-04-16T11:13:48.918Z,44.60
2023-04-16T11:16:15.634Z,44.50
2023-04-16T11:18:50.812Z,44.60
2023-04-16T11:21:18.290Z,44.50
2023-04-16T11:23:44.944Z,44.60
2023-04-16T11:26:11.776Z,44.60
2023-04-16T11:28:38.447Z,44.60
2023-04-16T11:31:05.373Z,44.50
2023-04-16T11:33:32.040Z,44.60
2023-04-16T11:35:58.684Z,44.50
2023-04-16T11:38:25.574Z,44.60
2023-04-16T11:40:52.227Z,44.60
2023-04-16T11:43:19.100Z,44.50
2023-04-16T11:45:45.752Z,44.70
2023-04-16T11:48:12.399Z,44.60
2023-04-16T11:50:39.065Z,44.60
2023-04-16T11:53:05.738Z,44.60
2023-04-16T11:55:32.424Z,44.60
2023-04-16T11:57:59.061Z,44.60
2023-04-16T12:00:25.722Z,44.60
2023-04-16T12:02:52.612Z,44.60
2023-04-16T12:05:19.398Z,44.70
2023-04-16T12:07:46.006Z,44.60
2023-04-16T12:10:12.855Z,44.60
2023-04-16T12:12:39.500Z,44.60
2023-04-16T12:15:06.158Z,44.60
2023-04-16T12:17:32.841Z,44.70
2023-04-16T12:19:59.546Z,44.60
2023-04-16T12:22:26.394Z,44.70
2023-04-16T12:24:53.254Z,44.70
2023-04-16T12:27:19.892Z,44.60
2023-04-16T12:29:46.511Z,44.70
2023-04-16T12:32:13.350Z,44.80
2023-04-16T12:34:39.965Z,44.70
2023-04-16T12:37:15.490Z,44.60
2023-04-16T12:39:42.635Z,44.60
2023-04-16T12:42:09.258Z,44.70
2023-04-16T12:44:35.878Z,44.70
2023-04-16T12:47:02.724Z,44.80
2023-04-16T12:49:29.350Z,44.70
2023-04-16T12:51:56.200Z,44.90
2023-04-16T12:54:22.830Z,44.60
2023-04-16T12:56:49.673Z,44.80
2023-04-16T12:59:16.273Z,44.70
2023-04-16T13:01:42.947Z,44.70
2023-04-16T13:04:09.801Z,44.70
2023-04-16T13:06:36.770Z,44.80
2023-04-16T13:09:03.419Z,44.80
2023-04-16T13:11:30.359Z,44.70
2023-04-16T13:13:56.989Z,44.80
2023-04-16T13:16:23.679Z,44.80
2023-04-16T13:18:50.380Z,44.80
2023-04-16T13:21:17.024Z,44.80
2023-04-16T13:23:43.676Z,44.80
2023-04-16T13:26:10.333Z,44.80
2023-04-16T13:28:36.979Z,44.80
2023-04-16T13:31:05.701Z,44.80
2023-04-16T13:33:32.603Z,44.80
2023-04-16T13:35:59.289Z,44.80
2023-04-16T13:38:25.944Z,44.80
2023-04-16T13:40:52.578Z,44.80
2023-04-16T13:43:19.208Z,44.80
2023-04-16T13:45:45.842Z,44.80
2023-04-16T13:48:12.475Z,44.80
2023-04-16T13:50:39.118Z,44.80
2023-04-16T13:53:05.739Z,44.80
2023-04-16T13:55:32.367Z,44.80
2023-04-16T13:57:58.986Z,44.90
2023-04-16T14:00:25.604Z,44.80
2023-04-16T14:02:52.452Z,44.90
2023-04-16T14:05:19.525Z,44.80
2023-04-16T14:07:46.183Z,44.90
2023-04-16T14:10:12.812Z,44.90
2023-04-16T14:12:39.474Z,44.80
2023-04-16T14:15:06.130Z,44.80
2023-04-16T14:17:33.025Z,44.80
2023-04-16T14:19:59.695Z,44.90
2023-04-16T14:25:13.677Z,44.80
2023-04-16T14:27:40.334Z,44.80
2023-04-16T14:30:07.017Z,44.80
2023-04-16T14:32:33.907Z,44.80
2023-04-16T14:35:00.559Z,44.80
2023-04-16T14:37:27.192Z,44.80
2023-04-16T14:39:53.833Z,44.80
2023-04-16T14:42:20.511Z,44.80
2023-04-16T14:44:47.137Z,44.90
2023-04-16T14:47:13.791Z,44.70
2023-04-16T14:49:40.434Z,44.80
2023-04-16T14:52:07.091Z,44.80
2023-04-16T14:54:33.737Z,44.90
2023-04-16T14:57:00.378Z,44.70
2023-04-16T14:59:27.000Z,44.80
2023-04-16T15:01:53.641Z,44.80
2023-04-16T15:04:20.467Z,44.80
2023-04-16T15:06:47.255Z,44.80
2023-04-16T15:09:13.922Z,44.80
2023-04-16T15:11:40.563Z,44.80
2023-04-16T15:14:07.409Z,44.70
2023-04-16T15:16:34.067Z,44.90
2023-04-16T15:19:01.130Z,45.80
2023-04-16T15:21:28.239Z,44.70
2023-04-16T15:23:54.864Z,44.90
2023-04-16T15:26:21.517Z,44.90
2023-04-16T15:28:48.171Z,44.80
2023-04-16T15:31:14.838Z,44.90
2023-04-16T15:33:41.510Z,44.90
2023-04-16T15:36:08.166Z,44.90
2023-04-16T15:38:35.013Z,44.80
2023-04-16T15:41:01.717Z,44.70
2023-04-16T15:43:28.355Z,44.90
2023-04-16T15:45:55.002Z,44.80
2023-04-16T15:48:21.685Z,44.90
2023-04-16T15:50:48.316Z,45.00
2023-04-16T15:53:15.170Z,44.90
2023-04-16T15:55:41.786Z,44.90
2023-04-16T15:58:08.401Z,44.90
2023-04-16T16:00:35.026Z,44.90
2023-04-16T16:03:01.772Z,44.80
2023-04-16T16:05:28.484Z,44.90
2023-04-16T16:07:55.354Z,44.90
2023-04-16T16:10:21.948Z,44.90
2023-04-16T16:12:48.562Z,44.70
2023-04-16T16:15:15.201Z,45.00
2023-04-16T16:17:41.836Z,45.00
2023-04-16T16:20:08.681Z,44.90
2023-04-16T16:22:35.326Z,44.90
2023-04-16T16:25:01.964Z,44.90
2023-04-16T16:27:28.641Z,44.90
2023-04-16T16:29:55.508Z,44.90
2023-04-16T16:32:22.175Z,44.90
2023-04-16T16:34:48.820Z,44.80
2023-04-16T16:37:15.643Z,44.90
2023-04-16T16:39:42.274Z,44.90
2023-04-16T16:42:08.914Z,44.90
2023-04-16T16:44:35.769Z,45.00
2023-04-16T16:47:02.553Z,44.90
2023-04-16T16:49:29.294Z,44.90
2023-04-16T16:51:55.953Z,45.00
2023-04-16T16:54:22.607Z,45.00
2023-04-16T16:56:49.406Z,44.90
2023-04-16T16:59:16.027Z,45.00
2023-04-16T17:01:42.676Z,45.00
2023-04-16T17:04:09.789Z,44.90
2023-04-16T17:06:36.532Z,45.00
2023-04-16T17:09:03.180Z,44.90
2023-04-16T17:11:29.806Z,45.00
2023-04-16T17:13:56.644Z,45.00
2023-04-16T17:16:23.546Z,45.00
2023-04-16T17:18:50.226Z,45.00
2023-04-16T17:21:17.068Z,45.00
2023-04-16T17:23:43.679Z,45.00
2023-04-16T17:26:10.293Z,45.00
2023-04-16T17:28:36.933Z,45.00
2023-04-16T17:31:03.803Z,46.00
2023-04-16T17:33:30.443Z,45.00
2023-04-16T17:35:57.121Z,45.00
2023-04-16T17:38:23.744Z,45.00
2023-04-16T17:40:50.371Z,45.00
2023-04-16T17:43:17.206Z,45.00
2023-04-16T17:45:43.841Z,44.80
2023-04-16T17:48:10.486Z,44.80
2023-04-16T17:50:39.420Z,45.00
2023-04-16T17:53:06.331Z,45.00
2023-04-16T17:55:32.994Z,45.00
2023-04-16T17:57:59.617Z,45.00
2023-04-16T18:00:26.264Z,45.00
2023-04-16T18:02:52.996Z,45.00
2023-04-16T18:05:19.707Z,45.00
2023-04-16T18:07:46.347Z,45.00
2023-04-16T18:10:12.999Z,45.00
2023-04-16T18:12:39.687Z,45.00
2023-04-16T18:15:07.564Z,45.00
2023-04-16T18:17:34.246Z,45.10
2023-04-16T18:20:01.174Z,45.00
2023-04-16T18:22:27.783Z,45.00
2023-04-16T18:24:54.657Z,45.10
2023-04-16T18:27:21.277Z,45.00
2023-04-16T18:29:49.385Z,45.00
2023-04-16T18:32:16.493Z,45.00
2023-04-16T18:34:43.273Z,45.10
2023-04-16T18:37:09.958Z,45.00
2023-04-16T18:39:39.543Z,45.00
2023-04-16T18:42:06.149Z,45.10
2023-04-16T18:44:32.792Z,45.00
2023-04-16T18:46:59.467Z,45.10
2023-04-16T18:49:26.137Z,45.00
2023-04-16T18:51:52.811Z,45.10
2023-04-16T18:54:19.649Z,45.00
2023-04-16T18:56:46.273Z,45.00
2023-04-16T18:59:13.050Z,45.00
2023-04-16T19:01:39.723Z,45.10
2023-04-16T19:04:06.449Z,45.10
2023-04-16T19:06:33.140Z,45.20
2023-04-16T19:08:59.792Z,45.10
2023-04-16T19:11:26.408Z,45.00
2023-04-16T19:13:53.049Z,45.00
2023-04-16T19:16:19.715Z,45.10
2023-04-16T19:18:46.344Z,45.10
2023-04-16T19:21:13.001Z,45.20
2023-04-16T19:23:39.648Z,45.10
2023-04-16T19:26:06.281Z,45.10
2023-04-16T19:28:32.940Z,45.20
2023-04-16T19:30:59.558Z,45.20
2023-04-16T19:33:26.179Z,45.20
2023-04-16T19:35:53.053Z,45.20
2023-04-16T19:38:19.728Z,45.20
2023-04-16T19:40:46.382Z,45.10
2023-04-16T19:43:13.082Z,45.10
2023-04-16T19:45:39.784Z,45.10
2023-04-16T19:48:06.688Z,45.20
2023-04-16T19:50:33.333Z,45.10
2023-04-16T19:52:59.944Z,45.10
2023-04-16T19:55:26.564Z,45.20
2023-04-16T19:57:53.183Z,45.30
2023-04-16T20:00:19.815Z,45.20
2023-04-16T20:02:46.580Z,45.20
2023-04-16T20:05:13.384Z,45.10
2023-04-16T20:07:42.722Z,45.20
2023-04-16T20:10:09.355Z,45.20
2023-04-16T20:12:35.986Z,45.20
2023-04-16T20:15:02.613Z,45.20
2023-04-16T20:17:29.255Z,45.20
2023-04-16T20:19:55.919Z,45.20
2023-04-16T20:22:22.768Z,45.10
2023-04-16T20:24:49.409Z,45.20
2023-04-16T20:27:16.023Z,45.20
2023-04-16T20:29:42.639Z,45.20
2023-04-16T20:32:09.536Z,45.20
2023-04-16T20:34:36.200Z,45.20
2023-04-16T20:37:02.829Z,45.20
2023-04-16T20:39:29.450Z,45.20
2023-04-16T20:41:56.067Z,45.20
2023-04-16T20:44:22.925Z,45.30
2023-04-16T20:46:49.958Z,45.30
2023-04-16T20:49:16.765Z,45.40
2023-04-16T20:51:43.412Z,45.20
2023-04-16T20:54:10.281Z,45.20
2023-04-16T20:56:36.920Z,45.20
2023-04-16T20:59:03.537Z,45.30
2023-04-16T21:01:30.408Z,45.20
2023-04-16T21:03:57.321Z,45.20
2023-04-16T21:06:24.448Z,45.30
2023-04-16T21:08:51.056Z,45.20
2023-04-16T21:11:17.671Z,45.20
2023-04-16T21:13:44.292Z,45.30
2023-04-16T21:16:10.985Z,45.20
2023-04-16T21:18:37.858Z,45.20
2023-04-16T21:21:04.543Z,45.20
2023-04-16T21:23:31.185Z,45.30
2023-04-16T21:25:57.811Z,45.30
2023-04-16T21:28:24.420Z,45.30
2023-04-16T21:30:51.065Z,45.20
2023-04-16T21:33:17.711Z,45.30
2023-04-16T21:35:44.545Z,45.20
2023-04-16T21:38:11.174Z,45.20
2023-04-16T21:40:37.825Z,45.30
2023-04-16T21:43:04.659Z,45.20
2023-04-16T21:45:31.527Z,45.20
2023-04-16T21:47:58.218Z,45.20
2023-04-16T21:50:24.892Z,45.30
2023-04-16T21:52:51.507Z,45.10
2023-04-16T21:55:18.143Z,45.20
2023-04-16T21:57:44.936Z,45.30
2023-04-16T22:00:11.583Z,45.20
2023-04-16T22:02:38.286Z,45.30
2023-04-16T22:05:04.976Z,45.20
2023-04-16T22:07:31.623Z,45.30
2023-04-16T22:09:58.266Z,45.10
2023-04-16T22:12:24.926Z,45.20
2023-04-16T22:15:01.999Z,45.20
2023-04-16T22:17:29.693Z,45.20
2023-04-16T22:19:56.351Z,45.20
2023-04-16T22:22:23.028Z,45.20
2023-04-16T22:24:49.672Z,45.20
2023-04-16T22:27:16.287Z,45.20
2023-04-16T22:29:43.119Z,45.10
2023-04-16T22:32:09.821Z,45.20
2023-04-16T22:34:36.692Z,45.20
2023-04-16T22:37:03.306Z,45.20
2023-04-16T22:39:29.936Z,45.20
2023-04-16T22:41:56.548Z,45.10
2023-04-16T22:44:23.381Z,45.30
2023-04-16T22:46:50.210Z,45.20
2023-04-16T22:49:17.046Z,45.20
2023-04-16T22:51:43.671Z,45.30
2023-04-16T22:54:11.601Z,45.20
2023-04-16T22:56:39.175Z,45.20
2023-04-16T22:59:05.810Z,45.30
2023-04-16T23:01:32.503Z,45.20
2023-04-16T23:03:59.184Z,45.20
2023-04-16T23:06:25.864Z,45.30
2023-04-16T23:08:52.491Z,45.30
2023-04-16T23:11:19.119Z,45.30
2023-04-16T23:13:45.727Z,45.30
2023-04-16T23:16:12.445Z,45.30
2023-04-16T23:18:39.361Z,45.20
2023-04-16T23:21:06.227Z,45.10
2023-04-16T23:23:32.867Z,45.20
2023-04-16T23:25:59.479Z,45.20
2023-04-16T23:28:26.097Z,45.30
2023-04-16T23:30:52.821Z,45.30
2023-04-16T23:33:19.567Z,45.30
2023-04-16T23:35:46.303Z,45.30
2023-04-16T23:38:12.975Z,45.30
2023-04-16T23:40:39.611Z,45.30
2023-04-16T23:43:06.465Z,45.30
2023-04-16T23:45:33.134Z,45.30
2023-04-16T23:47:59.866Z,45.20
2023-04-16T23:50:26.548Z,45.20
2023-04-16T23:52:53.182Z,45.20
2023-04-16T23:55:19.831Z,45.30
2023-04-16T23:57:46.460Z,45.20
